createdAt,value
2023-02-03T00:01:26.813Z,68.06
2023-02-03T00:03:55.112Z,68.16
2023-02-03T00:06:23.341Z,68.10
2023-02-03T00:08:55.833Z,68.17
2023-02-03T00:11:24.021Z,68.19
2023-02-03T00:13:52.319Z,68.31
2023-02-03T00:16:26.143Z,68.16
2023-02-03T00:18:54.451Z,68.34
2023-02-03T00:21:22.486Z,68.34
2023-02-03T00:23:50.478Z,68.13
2023-02-03T00:26:18.887Z,68.25
2023-02-03T00:28:48.955Z,68.22
2023-02-03T00:31:36.515Z,68.32
2023-02-03T00:34:04.633Z,68.48
2023-02-03T00:36:32.823Z,68.34
2023-02-03T00:39:01.872Z,68.22
2023-02-03T00:41:34.246Z,68.29
2023-02-03T00:44:02.397Z,68.31
2023-02-03T00:46:30.372Z,68.30
2023-02-03T00:48:58.615Z,68.34
2023-02-03T00:51:26.693Z,68.22
2023-02-03T00:53:56.022Z,68.33
2023-02-03T00:56:24.401Z,68.36
2023-02-03T00:58:52.537Z,68.35
2023-02-03T01:01:20.650Z,68.36
2023-02-03T01:03:48.800Z,68.35
2023-02-03T01:06:20.714Z,68.44
2023-02-03T01:08:49.771Z,68.53
2023-02-03T01:11:20.359Z,68.17
2023-02-03T01:14:08.217Z,68.26
2023-02-03T01:16:38.664Z,68.30
2023-02-03T01:19:06.725Z,68.34
2023-02-03T01:21:36.777Z,68.35
2023-02-03T01:24:04.997Z,68.47
2023-02-03T01:26:32.992Z,68.53
2023-02-03T01:29:02.244Z,68.44
2023-02-03T01:31:37.274Z,68.32
2023-02-03T01:34:13.146Z,68.38
2023-02-03T01:36:41.820Z,68.37
2023-02-03T01:39:10.908Z,68.33
2023-02-03T01:41:39.885Z,68.32
2023-02-03T01:44:39.677Z,68.30
2023-02-03T01:47:23.358Z,68.34
2023-02-03T01:50:30.749Z,68.44
2023-02-03T01:53:04.511Z,68.35
2023-02-03T01:55:40.893Z,68.35
2023-02-03T01:58:24.995Z,68.33
2023-02-03T02:00:55.815Z,68.26
2023-02-03T02:03:28.677Z,68.28
2023-02-03T02:06:03.821Z,68.35
2023-02-03T02:08:32.331Z,68.34
2023-02-03T02:11:01.579Z,68.47
2023-02-03T02:13:32.263Z,68.42
2023-02-03T02:16:16.896Z,68.42
2023-02-03T02:19:17.539Z,68.35
2023-02-03T02:21:59.802Z,68.36
2023-02-03T02:24:55.433Z,68.42
2023-02-03T02:27:41.667Z,68.36
2023-02-03T02:30:34.976Z,68.34
2023-02-03T02:33:14.379Z,68.23
2023-02-03T02:36:21.877Z,68.29
2023-02-03T02:38:59.497Z,68.34
2023-02-03T02:41:47.187Z,68.34
2023-02-03T02:44:25.835Z,68.27
2023-02-03T02:46:58.297Z,68.42
2023-02-03T02:49:36.082Z,68.38
2023-02-03T02:52:07.537Z,68.28
2023-02-03T02:54:41.063Z,68.34
2023-02-03T02:57:13.103Z,68.27
2023-02-03T03:00:00.246Z,68.36
2023-02-03T03:02:36.936Z,68.29
2023-02-03T03:05:09.248Z,68.21
2023-02-03T03:07:53.478Z,68.23
2023-02-03T03:10:25.423Z,68.30
2023-02-03T03:12:57.574Z,68.27
2023-02-03T03:15:30.863Z,68.31
2023-02-03T03:18:22.114Z,68.24
2023-02-03T03:20:53.659Z,68.32
2023-02-03T03:23:30.310Z,68.34
2023-02-03T03:26:08.733Z,68.24
2023-02-03T03:29:14.968Z,68.25
2023-02-03T03:31:44.086Z,68.37
2023-02-03T03:34:13.715Z,68.25
2023-02-03T03:36:52.701Z,68.26
2023-02-03T03:39:24.563Z,68.37
2023-02-03T03:42:13.021Z,68.28
2023-02-03T03:45:08.174Z,68.24
2023-02-03T03:48:04.342Z,68.18
2023-02-03T03:50:37.021Z,68.36
2023-02-03T03:53:07.769Z,68.29
2023-02-03T03:55:38.576Z,68.46
2023-02-03T03:58:31.849Z,68.28
2023-02-03T04:01:06.228Z,68.34
2023-02-03T04:03:48.581Z,68.29
2023-02-03T04:06:16.820Z,68.27
2023-02-03T04:08:44.783Z,68.35
2023-02-03T04:11:32.819Z,68.22
2023-02-03T04:14:00.905Z,68.22
2023-02-03T04:16:29.273Z,68.30
2023-02-03T04:18:57.378Z,68.38
2023-02-03T04:21:25.343Z,68.33
2023-02-03T04:23:53.382Z,68.30
2023-02-03T04:26:21.614Z,68.38
2023-02-03T04:28:49.964Z,68.30
2023-02-03T04:31:18.253Z,68.38
2023-02-03T04:33:46.417Z,68.32
2023-02-03T04:36:15.295Z,68.32
2023-02-03T04:38:43.361Z,68.39
2023-02-03T04:41:11.401Z,68.38
2023-02-03T04:43:39.486Z,68.35
2023-02-03T04:46:07.682Z,68.44
2023-02-03T04:48:36.279Z,68.36
2023-02-03T04:51:07.337Z,68.29
2023-02-03T04:53:54.186Z,68.41
2023-02-03T04:56:22.283Z,68.36
2023-02-03T04:58:50.246Z,68.36
2023-02-03T05:01:18.438Z,68.33
2023-02-03T05:03:47.183Z,68.47
2023-02-03T05:06:15.156Z,68.54
2023-02-03T05:08:43.504Z,68.62
2023-02-03T05:11:11.803Z,68.43
2023-02-03T05:13:39.781Z,68.54
2023-02-03T05:16:07.874Z,68.48
2023-02-03T05:18:36.104Z,68.47
2023-02-03T05:21:04.494Z,68.38
2023-02-03T05:23:34.891Z,68.37
2023-02-03T05:26:04.458Z,68.48
2023-02-03T05:28:32.523Z,68.44
2023-02-03T05:31:02.212Z,68.31
2023-02-03T05:33:30.655Z,68.40
2023-02-03T05:35:58.683Z,68.43
2023-02-03T05:38:26.789Z,68.38
2023-02-03T05:41:32.386Z,68.48
2023-02-03T05:44:00.644Z,68.49
2023-02-03T05:46:28.695Z,68.44
2023-02-03T05:48:56.698Z,68.39
2023-02-03T05:51:25.249Z,68.36
2023-02-03T05:53:53.828Z,68.45
2023-02-03T05:56:21.918Z,68.35
2023-02-03T05:58:53.357Z,68.56
2023-02-03T06:01:22.284Z,68.38
2023-02-03T06:03:50.587Z,68.31
2023-02-03T06:06:37.591Z,68.51
2023-02-03T06:09:08.427Z,68.50
2023-02-03T06:11:36.993Z,68.44
2023-02-03T06:14:05.350Z,68.39
2023-02-03T06:16:33.541Z,68.48
2023-02-03T06:19:02.310Z,68.41
2023-02-03T06:21:30.406Z,68.45
2023-02-03T06:23:58.578Z,68.55
2023-02-03T06:26:26.665Z,68.45
2023-02-03T06:28:54.685Z,68.35
2023-02-03T06:31:23.048Z,68.49
2023-02-03T06:33:51.211Z,68.50
2023-02-03T06:36:19.316Z,68.58
2023-02-03T06:38:47.299Z,68.60
2023-02-03T06:41:15.448Z,68.72
2023-02-03T06:43:43.557Z,68.78
2023-02-03T06:46:11.619Z,68.79
2023-02-03T06:48:39.754Z,68.96
2023-02-03T06:51:07.931Z,68.94
2023-02-03T06:53:36.054Z,69.02
2023-02-03T06:56:04.223Z,69.09
2023-02-03T06:58:32.701Z,69.19
2023-02-03T07:01:00.737Z,69.32
2023-02-03T07:03:28.849Z,69.23
2023-02-03T07:05:57.292Z,69.30
2023-02-03T07:08:25.358Z,69.48
2023-02-03T07:11:13.605Z,69.47
2023-02-03T07:13:41.896Z,69.35
2023-02-03T07:16:10.017Z,69.44
2023-02-03T07:18:53.334Z,69.35
2023-02-03T07:21:21.526Z,69.45
2023-02-03T07:23:50.158Z,69.60
2023-02-03T07:26:19.156Z,69.64
2023-02-03T07:28:47.560Z,69.67
2023-02-03T07:31:16.314Z,69.71
2023-02-03T07:33:44.498Z,69.70
2023-02-03T07:36:12.861Z,69.72
2023-02-03T07:38:41.042Z,69.96
2023-02-03T07:41:09.273Z,70.06
2023-02-03T07:43:37.643Z,69.89
2023-02-03T07:46:05.982Z,69.94
2023-02-03T07:48:34.220Z,69.98
2023-02-03T07:51:02.324Z,70.06
2023-02-03T07:53:31.279Z,70.05
2023-02-03T07:56:03.690Z,70.09
2023-02-03T07:58:31.740Z,70.01
2023-02-03T08:01:00.318Z,69.99
2023-02-03T08:03:28.454Z,70.07
2023-02-03T08:05:56.608Z,69.94
2023-02-03T08:08:24.624Z,70.00
2023-02-03T08:10:56.201Z,70.09
2023-02-03T08:13:24.302Z,70.16
2023-02-03T08:15:52.973Z,70.15
2023-02-03T08:18:21.310Z,70.12
2023-02-03T08:20:49.908Z,70.14
2023-02-03T08:23:18.085Z,70.17
2023-02-03T08:25:51.071Z,70.21
2023-02-03T08:28:19.842Z,70.22
2023-02-03T08:30:48.291Z,70.26
2023-02-03T08:33:16.486Z,70.30
2023-02-03T08:35:49.940Z,70.19
2023-02-03T08:38:18.062Z,70.31
2023-02-03T08:40:46.245Z,70.26
2023-02-03T08:43:14.357Z,70.21
2023-02-03T08:45:42.512Z,70.22
2023-02-03T08:48:10.728Z,70.23
2023-02-03T08:50:42.780Z,70.13
2023-02-03T08:53:11.261Z,70.23
2023-02-03T08:55:40.292Z,70.20
2023-02-03T08:58:08.414Z,70.28
2023-02-03T09:00:36.686Z,70.21
2023-02-03T09:03:04.836Z,70.20
2023-02-03T09:05:33.778Z,70.13
2023-02-03T09:08:02.198Z,70.14
2023-02-03T09:10:30.773Z,69.99
2023-02-03T09:12:59.108Z,70.16
2023-02-03T09:15:27.254Z,70.09
2023-02-03T09:17:57.561Z,70.12
2023-02-03T09:20:26.465Z,70.07
2023-02-03T09:22:55.141Z,70.04
2023-02-03T09:25:23.149Z,70.01
2023-02-03T09:27:51.206Z,70.06
2023-02-03T09:30:19.795Z,70.20
2023-02-03T09:32:54.164Z,70.11
2023-02-03T09:35:22.717Z,70.15
2023-02-03T09:37:50.943Z,70.22
2023-02-03T09:40:25.181Z,70.44
2023-02-03T09:43:04.018Z,70.32
2023-02-03T09:45:32.342Z,70.57
2023-02-03T09:48:06.319Z,70.43
2023-02-03T09:50:38.035Z,70.42
2023-02-03T09:53:19.654Z,70.54
2023-02-03T09:55:48.761Z,70.52
2023-02-03T09:58:21.126Z,70.58
2023-02-03T10:00:54.435Z,70.74
2023-02-03T10:03:44.635Z,70.92
2023-02-03T10:06:35.585Z,70.92
2023-02-03T10:09:35.052Z,71.00
2023-02-03T10:12:41.169Z,71.08
2023-02-03T10:15:25.103Z,71.22
2023-02-03T10:18:12.895Z,71.33
2023-02-03T10:20:52.132Z,71.43
2023-02-03T10:23:29.841Z,71.37
2023-02-03T10:26:00.764Z,71.37
2023-02-03T10:28:44.256Z,71.61
2023-02-03T10:31:20.551Z,72.21
2023-02-03T10:33:55.436Z,71.95
2023-02-03T10:36:50.728Z,71.90
2023-02-03T10:39:28.293Z,72.20
2023-02-03T10:41:56.692Z,72.53
2023-02-03T10:44:36.880Z,73.37
2023-02-03T10:47:30.621Z,75.65
2023-02-03T10:50:01.874Z,74.51
2023-02-03T10:52:35.582Z,74.62
2023-02-03T10:55:09.149Z,74.51
2023-02-03T10:57:39.508Z,75.18
2023-02-03T11:00:23.829Z,75.85
2023-02-03T11:03:14.868Z,76.63
2023-02-03T11:05:43.576Z,76.88
2023-02-03T11:08:17.628Z,76.70
2023-02-03T11:10:45.809Z,75.77
2023-02-03T11:13:22.356Z,75.50
2023-02-03T11:15:54.237Z,75.54
2023-02-03T11:18:53.372Z,75.21
2023-02-03T11:21:25.914Z,75.09
2023-02-03T11:24:06.274Z,76.07
2023-02-03T11:26:43.678Z,76.12
2023-02-03T11:29:32.441Z,75.91
2023-02-03T11:32:04.752Z,75.58
2023-02-03T11:34:42.948Z,75.46
2023-02-03T11:37:41.529Z,75.83
2023-02-03T11:40:12.495Z,75.57
2023-02-03T11:42:43.567Z,75.79
2023-02-03T11:45:24.998Z,75.82
2023-02-03T11:47:56.323Z,76.09
2023-02-03T11:50:48.305Z,75.87
2023-02-03T11:53:29.504Z,75.90
2023-02-03T11:56:31.671Z,75.75
2023-02-03T11:59:21.056Z,75.78
2023-02-03T12:02:23.567Z,75.76
2023-02-03T12:05:07.313Z,75.68
2023-02-03T12:07:53.686Z,75.69
2023-02-03T12:10:38.959Z,75.80
2023-02-03T12:13:44.943Z,75.80
2023-02-03T12:16:36.284Z,75.98
2023-02-03T12:19:15.379Z,76.73
2023-02-03T12:21:46.096Z,77.24
2023-02-03T12:24:30.969Z,76.91
2023-02-03T12:27:54.916Z,77.02
2023-02-03T12:30:32.917Z,79.42
2023-02-03T12:33:12.301Z,79.66
2023-02-03T12:35:50.273Z,78.51
2023-02-03T12:38:41.354Z,78.55
2023-02-03T12:41:42.231Z,79.04
2023-02-03T12:44:40.733Z,78.79
2023-02-03T12:47:34.771Z,78.54
2023-02-03T12:50:16.362Z,78.91
2023-02-03T12:53:12.927Z,80.64
2023-02-03T12:55:45.150Z,79.29
2023-02-03T12:58:25.622Z,81.50
2023-02-03T13:00:56.417Z,83.38
2023-02-03T13:03:30.577Z,83.10
2023-02-03T13:06:09.416Z,82.80
2023-02-03T13:08:53.975Z,81.71
2023-02-03T13:11:35.255Z,81.05
2023-02-03T13:14:21.094Z,81.48
2023-02-03T13:16:54.583Z,81.21
2023-02-03T13:19:27.894Z,81.00
2023-02-03T13:21:56.140Z,82.19
2023-02-03T13:24:27.564Z,82.91
2023-02-03T13:27:20.745Z,83.26
2023-02-03T13:30:42.629Z,83.27
2023-02-03T13:33:31.733Z,32.94
2023-02-03T17:14:58.542Z,30.62
2023-02-03T17:17:26.688Z,-1.00
2023-02-03T17:19:54.943Z,-1.00
2023-02-03T17:22:23.174Z,-1.00
2023-02-03T17:24:51.322Z,-1.00
2023-02-03T17:27:20.116Z,-1.00
2023-02-03T17:29:48.155Z,-1.00
2023-02-03T17:32:17.446Z,-1.00
2023-02-03T17:34:45.635Z,-1.00
2023-02-03T17:37:13.781Z,-1.00
2023-02-03T17:53:33.829Z,-1.00
2023-02-03T17:56:16.730Z,-1.00
2023-02-03T17:58:46.338Z,-1.00
2023-02-03T18:01:18.351Z,-1.00
2023-02-03T18:04:00.680Z,-1.00
2023-02-03T18:06:30.390Z,-1.00
2023-02-03T18:09:01.490Z,-1.00
2023-02-03T18:11:31.757Z,-1.00
2023-02-03T18:14:00.964Z,-1.00
2023-02-03T18:16:33.167Z,-1.00
2023-02-03T18:19:03.762Z,-1.00
2023-02-03T18:21:32.652Z,-1.00
2023-02-03T18:24:02.104Z,-1.00
2023-02-03T18:26:36.416Z,-1.00
2023-02-03T18:29:05.822Z,-1.00
2023-02-03T18:31:34.106Z,-1.00
2023-02-03T18:34:03.979Z,-1.00
2023-02-03T18:36:33.182Z,-1.00
2023-02-03T18:39:01.310Z,-1.00
2023-02-03T18:41:29.651Z,-1.00
2023-02-03T18:43:57.827Z,-1.00
2023-02-03T18:46:28.592Z,-1.00
2023-02-03T18:48:57.195Z,-1.00
2023-02-03T18:51:27.128Z,-1.00
2023-02-03T18:53:59.424Z,-1.00
2023-02-03T18:56:35.366Z,-1.00
2023-02-03T18:59:09.703Z,-1.00
2023-02-03T19:01:39.165Z,-1.00
2023-02-03T19:04:07.440Z,-1.00
2023-02-03T19:06:35.995Z,-1.00
2023-02-03T19:09:06.050Z,-1.00
2023-02-03T19:11:35.325Z,-1.00
2023-02-03T19:14:03.952Z,-1.00
2023-02-03T19:16:32.105Z,-1.00
2023-02-03T19:19:00.822Z,-1.00
2023-02-03T19:21:28.992Z,-1.00
2023-02-03T19:23:57.098Z,-1.00
2023-02-03T19:26:25.396Z,-1.00
2023-02-03T19:28:53.669Z,-1.00
2023-02-03T19:31:21.868Z,-1.00
2023-02-03T19:33:50.138Z,-1.00
2023-02-03T19:36:18.265Z,-1.00
2023-02-03T19:38:46.401Z,-1.00
2023-02-03T19:41:14.550Z,-1.00
2023-02-03T19:43:42.638Z,-1.00
2023-02-03T19:46:13.606Z,-1.00
2023-02-03T19:48:41.875Z,-1.00
2023-02-03T19:51:12.328Z,-1.00
2023-02-03T19:53:40.560Z,-1.00
2023-02-03T19:56:08.817Z,-1.00
2023-02-03T19:58:37.067Z,-1.00
2023-02-03T20:01:05.650Z,-1.00
2023-02-03T20:03:33.877Z,-1.00
2023-02-03T20:06:08.638Z,-1.00
2023-02-03T20:08:36.808Z,-1.00
2023-02-03T20:11:05.148Z,-1.00
2023-02-03T20:13:33.420Z,-1.00
2023-02-03T20:16:01.641Z,-1.00
2023-02-03T20:18:30.154Z,-1.00
2023-02-03T20:20:59.579Z,-1.00
2023-02-03T20:23:27.815Z,-1.00
2023-02-03T20:25:55.907Z,-1.00
2023-02-03T20:28:26.441Z,-1.00
2023-02-03T20:30:59.196Z,-1.00
2023-02-03T20:33:29.764Z,-1.00
2023-02-03T20:35:58.168Z,-1.00
2023-02-03T20:38:26.398Z,-1.00
2023-02-03T20:40:54.492Z,-1.00
2023-02-03T20:43:27.370Z,-1.00
2023-02-03T20:45:55.937Z,-1.00
2023-02-03T20:48:25.665Z,-1.00
2023-02-03T20:50:53.941Z,-1.00
2023-02-03T20:53:24.186Z,-1.00
2023-02-03T20:55:57.198Z,-1.00
2023-02-03T20:58:29.514Z,-1.00
2023-02-03T21:01:04.072Z,-1.00
2023-02-03T21:03:50.602Z,-1.00
2023-02-03T21:06:20.450Z,-1.00
2023-02-03T21:08:48.709Z,-1.00
2023-02-03T21:11:21.793Z,-1.00
2023-02-03T21:13:50.059Z,-1.00
2023-02-03T21:16:25.345Z,-1.00
2023-02-03T21:18:56.821Z,-1.00
2023-02-03T21:21:34.896Z,-1.00
2023-02-03T21:24:17.090Z,-1.00
2023-02-03T21:28:24.614Z,76.65
2023-02-03T21:30:54.236Z,-1.00
2023-02-03T21:33:41.412Z,-1.00
2023-02-03T21:36:24.565Z,-1.00
2023-02-03T21:38:59.263Z,-1.00
2023-02-03T21:41:33.540Z,-1.00
2023-02-03T21:44:02.692Z,-1.00
2023-02-03T21:46:35.869Z,-1.00
2023-02-03T23:49:23.156Z,73.54
2023-02-03T23:51:51.327Z,73.36
2023-02-03T23:54:19.500Z,73.32
2023-02-03T23:56:47.879Z,73.42
2023-02-03T23:59:16.053Z,73.43
